Terminal Aerodrome Forecast
Issued by NWS Springfield, MO

Home | Current Version | Previous Version | Text Only | Print | Product List | Glossary On
Versions: 1 2 3 4 5 6 7 8 9 10 11 12 13 14 15 16 17 18 19 20 21 22 23 24 25 26 27 28 29 30
000
FTUS43 KSGF 282000 AAB
TAFSGF
TAF AMD
KSGF 282055Z 2821/2918 30005KT P6SM -RA VCTS SCT030CB BKN045
     FM282230 15008KT P6SM OVC100
     FM290800 17008KT P6SM OVC100 WS020/22035KT
     FM291200 18008KT 4SM BR OVC250
     FM291400 19010KT P6SM BKN100 OVC250=

USA.gov is the U.S. government's official web portal to all federal, state and local government web resources and services.